TimeCDT,TemperatureF,Dew PointF,Humidity,Sea Level PressureIn,VisibilityMPH,Wind Direction,Wind SpeedMPH,Gust SpeedMPH,PrecipitationIn,Events,Conditions,WindDirDegrees,DateUTC
12:53 AM,46.9,42.1,83,29.99,10.0,SW,5.8,-,N/A,,Partly Cloudy,220,2012-10-31 05:53:00
1:53 AM,46.9,41.0,80,29.99,10.0,SW,4.6,-,N/A,,Clear,230,2012-10-31 06:53:00
2:53 AM,51.1,42.1,71,29.99,10.0,WSW,6.9,-,N/A,,Clear,240,2012-10-31 07:53:00
3:53 AM,48.9,42.1,77,29.97,10.0,SW,6.9,-,N/A,,Clear,230,2012-10-31 08:53:00
4:53 AM,51.1,43.0,74,29.98,10.0,WSW,6.9,-,N/A,,Clear,250,2012-10-31 09:53:00
5:53 AM,50.0,42.1,74,29.99,10.0,WSW,5.8,-,N/A,,Clear,250,2012-10-31 10:53:00
6:53 AM,44.1,39.9,85,30.01,10.0,NE,4.6,-,N/A,,Clear,40,2012-10-31 11:53:00
7:53 AM,44.1,39.9,85,30.02,10.0,Calm,Calm,-,N/A,,Clear,0,2012-10-31 12:53:00
8:53 AM,52.0,46.0,80,30.02,10.0,SSW,5.8,-,N/A,,Partly Cloudy,200,2012-10-31 13:53:00
9:53 AM,60.1,46.0,60,30.01,10.0,WSW,6.9,-,N/A,,Clear,240,2012-10-31 14:53:00
10:53 AM,61.0,46.0,58,30.02,10.0,West,3.5,-,N/A,,Clear,280,2012-10-31 15:53:00
11:53 AM,63.0,46.0,54,30.02,10.0,NNE,6.9,-,N/A,,Mostly Cloudy,20,2012-10-31 16:53:00
12:53 PM,64.9,46.0,50,30.01,10.0,ENE,6.9,-,N/A,,Mostly Cloudy,60,2012-10-31 17:53:00
1:53 PM,66.9,44.1,44,29.99,10.0,NNE,4.6,-,N/A,,Clear,30,2012-10-31 18:53:00
2:53 PM,68.0,42.1,39,29.98,10.0,Variable,4.6,-,N/A,,Partly Cloudy,0,2012-10-31 19:53:00
3:53 PM,69.1,39.9,35,29.98,10.0,NE,4.6,-,N/A,,Clear,50,2012-10-31 20:53:00
4:53 PM,70.0,39.9,33,29.98,10.0,North,4.6,-,N/A,,Clear,350,2012-10-31 21:53:00
5:53 PM,66.0,39.9,38,29.99,10.0,Calm,Calm,-,N/A,,Clear,0,2012-10-31 22:53:00
6:53 PM,57.2,42.8,59,29.98,10.0,Calm,Calm,-,N/A,,Clear,0,2012-10-31 23:53:00
7:53 PM,53.1,42.1,66,30.01,10.0,Calm,Calm,-,N/A,,Clear,0,2012-11-01 00:53:00
8:53 PM,50.0,42.1,74,30.02,10.0,Calm,Calm,-,N/A,,Clear,0,2012-11-01 01:53:00
9:53 PM,50.0,42.1,74,30.02,10.0,Calm,Calm,-,N/A,,Clear,0,2012-11-01 02:53:00
10:53 PM,48.9,42.1,77,30.02,10.0,Calm,Calm,-,N/A,,Clear,0,2012-11-01 03:53:00
11:53 PM,48.0,43.0,83,30.03,10.0,Calm,Calm,-,N/A,,Clear,0,2012-11-01 04:53:00